Аэропорт: Одесса. Одесса

ICAO: UKOO

METAR:
2019-09-21 16:00:00
UKOO 211600Z 31003MPS CAVOK 14/M05 Q1023 R16/090060 NOSIG
METAR:
2019-09-21 11:03:00
TAF UKOO 211103Z 2112/2212 31006G13MPS 9999 SCT010 SCT020CB TEMPO 2118/2124 27003G08MPS BECMG 2200/2201 25007G14MPS 2100 FU BR BECMG 2206/2207 6000 NSW